Time;durP1;ratioP1;P1;durP2;ratioP2;P2;SDS_P1;SDS_P2;PMS_P1;PMS_P2;Temp;Humidity;BMP_temperature;BMP_pressure;BME280_temperature;BME280_humidity;BME280_pressure;Samples;Min_cycle;Max_cycle;Signal;HPM_P1;HPM_P2
2022/09/17 00:00:24;;;;;;;14.40;2.40;;;11.10;99.90;;;;;;5034419;28;20053;-69
2022/09/17 00:02:54;;;;;;;19.73;2.58;;;11.10;99.90;;;;;;5020610;28;21706;-68
2022/09/17 00:05:23;;;;;;;15.10;2.53;;;11.10;99.90;;;;;;5023459;28;20049;-69
2022/09/17 00:07:50;;;;;;;21.88;2.47;;;11.10;99.90;;;;;;5027448;28;20048;-69
2022/09/17 00:10:18;;;;;;;16.27;2.05;;;11.10;99.90;;;;;;5040733;28;20030;-70
2022/09/17 00:12:44;;;;;;;20.42;2.38;;;11.10;99.90;;;;;;5021950;28;20037;-69
2022/09/17 00:15:10;;;;;;;19.88;2.70;;;11.10;99.90;;;;;;5016746;28;20053;-69
2022/09/17 00:17:36;;;;;;;13.73;2.22;;;11.10;99.90;;;;;;5045124;28;20081;-69
2022/09/17 00:20:04;;;;;;;14.30;1.90;;;11.10;99.90;;;;;;5014432;28;20154;-69
2022/09/17 00:22:29;;;;;;;15.30;2.13;;;11.00;99.90;;;;;;5025810;28;20410;-69
2022/09/17 00:24:55;;;;;;;14.70;2.10;;;11.00;99.90;;;;;;5022478;28;20046;-69
2022/09/17 00:27:21;;;;;;;16.23;2.22;;;11.00;99.90;;;;;;5026699;28;20080;-68
2022/09/17 00:29:47;;;;;;;14.18;2.33;;;11.00;99.90;;;;;;5034050;28;20049;-69
2022/09/17 00:32:13;;;;;;;13.23;1.88;;;11.00;99.90;;;;;;5029131;28;20049;-69
2022/09/17 00:34:38;;;;;;;12.80;2.55;;;11.00;99.90;;;;;;5042728;28;20041;-69
2022/09/17 00:37:04;;;;;;;11.82;2.15;;;11.00;99.90;;;;;;5015485;28;20088;-68
2022/09/17 00:39:30;;;;;;;15.30;2.08;;;11.00;99.90;;;;;;5044583;28;20055;-69
2022/09/17 00:41:56;;;;;;;13.40;2.05;;;11.00;99.90;;;;;;5030080;28;20128;-69
2022/09/17 00:44:41;;;;;;;17.92;2.33;;;10.90;99.90;;;;;;5053529;28;20162;-69
2022/09/17 00:47:20;;;;;;;12.00;2.15;;;10.90;99.90;;;;;;5044002;28;20053;-69
2022/09/17 00:49:48;;;;;;;12.93;2.20;;;10.90;99.90;;;;;;5044011;28;20046;-69
2022/09/17 00:52:21;;;;;;;14.95;1.70;;;10.90;99.90;;;;;;5025954;28;20504;-69
2022/09/17 00:54:54;;;;;;;14.07;2.17;;;10.80;99.90;;;;;;5027504;28;20379;-69
2022/09/17 00:57:20;;;;;;;15.65;2.00;;;10.80;99.90;;;;;;5027103;28;20128;-69
2022/09/17 00:59:45;;;;;;;15.00;2.63;;;10.70;99.90;;;;;;5043105;28;20139;-69
2022/09/17 01:02:11;;;;;;;11.40;1.77;;;10.70;99.90;;;;;;5049163;28;20061;-69
2022/09/17 01:04:37;;;;;;;16.85;2.20;;;10.60;99.90;;;;;;5025107;28;20038;-69
2022/09/17 01:07:25;;;;;;;13.63;2.90;;;10.60;99.90;;;;;;5011700;28;20029;-69
2022/09/17 01:09:57;;;;;;;16.65;2.13;;;10.60;99.90;;;;;;5023965;28;20049;-70
2022/09/17 01:12:22;;;;;;;;;;;10.60;99.90;;;;;;5031887;28;20040;-69
2022/09/17 01:15:14;;;;;;;18.27;2.33;;;10.50;99.90;;;;;;5052311;28;20000;-69
2022/09/17 01:17:53;;;;;;;13.80;2.28;;;10.50;99.90;;;;;;5026785;28;20526;-69
2022/09/17 01:20:25;;;;;;;17.98;2.08;;;10.50;99.90;;;;;;5030566;28;20056;-69
2022/09/17 01:23:50;;;;;;;15.35;2.05;;;10.50;99.90;;;;;;5030739;28;20060;-69
2022/09/17 01:26:46;;;;;;;14.98;1.92;;;10.40;99.90;;;;;;5006887;28;20037;-69
2022/09/17 01:29:48;;;;;;;13.73;2.35;;;10.40;99.90;;;;;;5005993;28;20496;-69
2022/09/17 01:32:24;;;;;;;14.82;2.05;;;10.40;99.90;;;;;;5012538;28;20053;-69
2022/09/17 01:35:01;;;;;;;13.98;1.92;;;10.30;99.90;;;;;;5039795;28;20106;-69
2022/09/17 01:37:41;;;;;;;10.13;1.60;;;10.30;99.90;;;;;;5026611;28;20044;-69
2022/09/17 01:40:24;;;;;;;10.82;1.85;;;10.40;99.90;;;;;;5033979;28;20111;-69
2022/09/17 01:43:28;;;;;;;10.10;1.67;;;10.30;99.90;;;;;;5033156;28;20096;-69
2022/09/17 01:46:18;;;;;;;13.35;1.80;;;10.20;99.90;;;;;;5023082;28;20058;-69
2022/09/17 01:48:48;;;;;;;15.93;1.92;;;10.20;99.90;;;;;;5021055;28;20053;-69
2022/09/17 01:51:18;;;;;;;17.55;2.38;;;10.20;99.90;;;;;;5055977;28;20041;-69
2022/09/17 01:54:18;;;;;;;10.18;1.63;;;10.20;99.90;;;;;;5027821;28;20049;-69
2022/09/17 01:57:03;;;;;;;11.35;1.70;;;10.10;99.90;;;;;;5029830;28;20064;-69
2022/09/17 02:00:10;;;;;;;16.75;2.50;;;10.10;99.90;;;;;;5025428;28;20049;-69
2022/09/17 02:02:44;;;;;;;14.18;1.92;;;10.20;99.90;;;;;;5008293;28;20042;-69
2022/09/17 02:05:38;;;;;;;15.93;1.92;;;10.10;99.90;;;;;;5027732;28;20041;-69
2022/09/17 02:08:15;;;;;;;13.98;1.85;;;10.00;99.90;;;;;;5024872;28;20072;-69
2022/09/17 02:10:50;;;;;;;16.13;2.00;;;10.00;99.90;;;;;;5025197;28;20431;-69
2022/09/17 02:13:29;;;;;;;15.10;1.60;;;10.10;99.90;;;;;;5040428;28;20076;-69
2022/09/17 02:16:04;;;;;;;16.55;2.22;;;10.10;99.90;;;;;;5027813;28;20465;-69
2022/09/17 02:18:45;;;;;;;19.75;2.80;;;10.10;99.90;;;;;;5024975;28;20500;-69
2022/09/17 02:21:17;;;;;;;21.25;2.60;;;10.20;99.90;;;;;;5056668;28;20079;-69
2022/09/17 02:24:04;;;;;;;18.25;2.22;;;10.30;99.90;;;;;;5031740;28;20128;-69
2022/09/17 02:26:33;;;;;;;13.40;1.95;;;10.40;99.90;;;;;;5037872;28;20064;-69
2022/09/17 02:29:23;;;;;;;15.13;1.60;;;10.40;99.90;;;;;;5043046;28;20050;-70
2022/09/17 02:31:49;;;;;;;14.95;1.88;;;10.40;99.90;;;;;;5046928;28;20144;-69
2022/09/17 02:34:15;;;;;;;17.35;1.83;;;10.60;99.90;;;;;;5011326;28;20136;-69
2022/09/17 02:36:41;;;;;;;12.60;1.92;;;10.40;99.90;;;;;;5037720;28;20135;-70
2022/09/17 02:39:08;;;;;;;8.15;1.70;;;10.40;99.90;;;;;;5032578;28;20033;-69
2022/09/17 02:42:09;;;;;;;12.25;1.80;;;10.40;99.90;;;;;;5016410;28;20041;-70
2022/09/17 02:44:57;;;;;;;11.03;1.57;;;10.40;99.90;;;;;;5057659;28;20044;-69
2022/09/17 02:47:50;;;;;;;9.95;1.60;;;10.30;99.90;;;;;;5042625;28;20047;-69
2022/09/17 02:50:53;;;;;;;11.73;1.40;;;10.30;99.90;;;;;;5029443;28;20077;-69
2022/09/17 02:53:55;;;;;;;12.82;1.70;;;10.30;99.90;;;;;;5056292;28;20583;-70
2022/09/17 02:56:50;;;;;;;13.70;1.70;;;10.20;99.90;;;;;;5023935;28;20144;-69
2022/09/17 02:59:23;;;;;;;12.73;1.73;;;10.20;99.90;;;;;;5025621;28;20120;-69
2022/09/17 03:02:13;;;;;;;13.20;2.20;;;10.20;99.90;;;;;;5025499;28;20053;-69
2022/09/17 03:04:40;;;;;;;15.50;1.98;;;10.20;99.90;;;;;;5057088;28;20067;-69
2022/09/17 03:07:10;;;;;;;14.18;2.25;;;10.20;99.90;;;;;;5009165;28;20045;-69
2022/09/17 03:09:36;;;;;;;18.20;2.45;;;10.20;99.90;;;;;;5023575;28;20116;-69
2022/09/17 03:12:03;;;;;;;10.70;1.70;;;10.10;99.90;;;;;;5026180;28;20418;-69
2022/09/17 03:14:29;;;;;;;15.15;2.25;;;10.10;99.90;;;;;;5023063;28;20069;-69
2022/09/17 03:16:56;;;;;;;15.27;2.20;;;10.10;99.90;;;;;;5023259;28;20085;-69
2022/09/17 03:19:22;;;;;;;14.73;2.33;;;10.10;99.90;;;;;;5058270;28;20051;-69
2022/09/17 03:21:48;;;;;;;12.10;1.85;;;10.10;99.90;;;;;;5025743;28;20053;-69
2022/09/17 03:24:13;;;;;;;16.33;2.22;;;10.10;99.90;;;;;;5025565;28;20117;-69
2022/09/17 03:26:40;;;;;;;15.82;2.08;;;10.10;99.90;;;;;;5024636;28;20092;-68
2022/09/17 03:29:06;;;;;;;10.15;1.55;;;10.50;99.90;;;;;;5025067;28;20510;-69
2022/09/17 03:31:32;;;;;;;11.65;1.73;;;10.20;99.90;;;;;;5023781;28;20030;-69
2022/09/17 03:33:57;;;;;;;18.17;2.03;;;10.20;99.90;;;;;;5027930;28;20053;-69
2022/09/17 03:36:24;;;;;;;15.27;2.40;;;10.30;99.90;;;;;;5026695;28;20065;-68
2022/09/17 03:38:54;;;;;;;13.05;1.80;;;10.30;99.90;;;;;;5030114;28;20111;-69
2022/09/17 03:41:20;;;;;;;19.15;2.17;;;10.20;99.90;;;;;;5027445;28;20049;-68
2022/09/17 03:43:45;;;;;;;14.30;2.03;;;10.30;99.90;;;;;;5030959;28;20072;-69
2022/09/17 03:46:11;;;;;;;13.13;1.80;;;10.40;99.90;;;;;;5027995;28;20450;-68
2022/09/17 03:48:38;;;;;;;14.77;2.33;;;10.30;99.90;;;;;;5028193;28;20534;-69
2022/09/17 03:51:05;;;;;;;15.57;1.65;;;10.40;99.90;;;;;;5027119;28;20044;-68
2022/09/17 03:53:31;;;;;;;15.10;2.08;;;10.40;99.90;;;;;;5028718;28;20049;-69
2022/09/17 03:55:59;;;;;;;14.57;1.83;;;10.30;99.90;;;;;;5056233;28;20046;-69
2022/09/17 03:58:26;;;;;;;16.13;2.15;;;10.40;99.90;;;;;;5026781;28;20046;-69
2022/09/17 04:00:52;;;;;;;14.18;1.85;;;10.30;99.90;;;;;;5027418;28;20045;-69
2022/09/17 04:03:18;;;;;;;9.25;1.65;;;10.30;99.90;;;;;;5026452;28;20403;-69
2022/09/17 04:05:44;;;;;;;10.52;1.92;;;10.20;99.90;;;;;;5026663;28;20045;-69
2022/09/17 04:08:09;;;;;;;11.10;1.85;;;10.20;99.90;;;;;;5026711;28;20540;-69
2022/09/17 04:10:35;;;;;;;14.55;2.15;;;10.20;99.90;;;;;;5025534;28;20064;-69
2022/09/17 04:13:01;;;;;;;14.18;1.85;;;10.20;99.90;;;;;;5028118;28;20045;-69
2022/09/17 04:15:26;;;;;;;16.45;2.22;;;10.20;99.90;;;;;;5025604;28;20060;-68
2022/09/17 04:17:58;;;;;;;12.27;1.42;;;10.10;99.90;;;;;;5025703;28;20077;-69
2022/09/17 04:20:25;;;;;;;15.98;2.13;;;10.10;99.90;;;;;;5027668;28;20132;-69
2022/09/17 04:22:51;;;;;;;14.90;2.13;;;10.10;99.90;;;;;;5027025;28;20050;-69
2022/09/17 04:25:17;;;;;;;13.95;1.67;;;10.10;99.90;;;;;;5026441;28;20049;-69
2022/09/17 04:27:44;;;;;;;17.30;2.47;;;10.00;99.90;;;;;;5027008;28;20033;-69
2022/09/17 04:30:11;;;;;;;14.95;2.22;;;10.00;99.90;;;;;;5008340;28;20509;-69
2022/09/17 04:32:36;;;;;;;13.57;2.00;;;10.00;99.90;;;;;;5026924;28;20045;-69
2022/09/17 04:35:03;;;;;;;13.50;2.10;;;10.00;99.90;;;;;;5025420;28;20037;-69
2022/09/17 04:37:29;;;;;;;11.07;1.70;;;10.00;99.90;;;;;;5026816;28;20490;-69
2022/09/17 04:39:54;;;;;;;17.55;2.10;;;10.00;99.90;;;;;;5028876;28;20124;-69
2022/09/17 04:42:21;;;;;;;16.95;1.80;;;10.10;99.90;;;;;;5008689;28;20037;-69
2022/09/17 04:44:47;;;;;;;17.88;2.67;;;10.00;99.90;;;;;;5027348;28;20057;-69
2022/09/17 04:47:12;;;;;;;15.45;2.15;;;10.00;99.90;;;;;;5026484;28;20038;-69
2022/09/17 04:49:38;;;;;;;15.32;1.90;;;10.00;99.90;;;;;;5057193;28;20529;-69
2022/09/17 04:52:04;;;;;;;15.15;1.85;;;9.90;99.90;;;;;;5027653;28;20038;-69
2022/09/17 04:54:29;;;;;;;17.73;2.53;;;9.90;99.90;;;;;;5026260;28;20048;-69
2022/09/17 04:56:55;;;;;;;15.60;2.10;;;10.20;99.90;;;;;;5027512;28;20041;-69
2022/09/17 04:59:21;;;;;;;20.08;2.15;;;9.90;99.90;;;;;;5028894;28;20132;-69
2022/09/17 05:01:48;;;;;;;14.20;2.08;;;9.90;99.90;;;;;;5025291;28;20501;-69
2022/09/17 05:04:14;;;;;;;17.48;2.80;;;9.90;99.90;;;;;;5008157;28;20049;-69
2022/09/17 05:06:39;;;;;;;12.70;2.03;;;9.90;99.90;;;;;;5019859;28;20045;-69
2022/09/17 05:09:05;;;;;;;19.65;2.40;;;9.90;99.90;;;;;;5023222;28;21293;-69
2022/09/17 05:11:31;;;;;;;14.98;2.00;;;9.90;99.90;;;;;;5043024;28;20041;-69
2022/09/17 05:13:57;;;;;;;20.77;2.65;;;10.30;99.90;;;;;;5013538;28;20062;-69
2022/09/17 05:16:23;;;;;;;15.90;2.85;;;9.80;99.90;;;;;;5009271;28;21062;-69
2022/09/17 05:18:50;;;;;;;14.30;1.70;;;9.90;99.90;;;;;;5018056;28;20394;-69
2022/09/17 05:21:19;;;;;;;13.23;2.08;;;9.90;99.90;;;;;;5027030;28;20038;-69
2022/09/17 05:23:45;;;;;;;17.33;2.33;;;9.90;99.90;;;;;;5018600;28;20128;-70
2022/09/17 05:26:11;;;;;;;15.45;1.95;;;10.00;99.90;;;;;;5024488;28;20044;-69
2022/09/17 05:28:37;;;;;;;15.35;2.40;;;9.90;99.90;;;;;;5015402;28;20034;-70
2022/09/17 05:31:02;;;;;;;15.55;2.17;;;10.00;99.90;;;;;;5020331;28;20115;-69
2022/09/17 05:33:28;;;;;;;14.60;1.77;;;10.30;99.90;;;;;;5023978;28;20110;-70
2022/09/17 05:35:54;;;;;;;12.95;1.67;;;10.00;99.90;;;;;;5012325;28;20052;-69
2022/09/17 05:38:20;;;;;;;9.15;1.52;;;10.00;99.90;;;;;;5026438;28;20128;-69
2022/09/17 05:40:47;;;;;;;7.30;1.25;;;9.90;99.90;;;;;;5055845;28;20080;-69
2022/09/17 05:43:14;;;;;;;7.72;1.17;;;9.90;99.90;;;;;;5026025;28;20042;-69
2022/09/17 05:45:40;;;;;;;7.72;1.00;;;9.90;99.90;;;;;;5025996;28;20051;-69
2022/09/17 05:48:10;;;;;;;8.93;1.10;;;9.80;99.90;;;;;;5038754;28;20054;-69
2022/09/17 05:50:36;;;;;;;6.28;1.27;;;9.70;99.90;;;;;;5007291;28;20049;-70
2022/09/17 05:53:06;;;;;;;2.75;0.73;;;9.70;99.90;;;;;;5010230;28;20034;-70
2022/09/17 05:55:34;;;;;;;6.38;0.90;;;9.60;99.90;;;;;;5001763;28;20041;-70
2022/09/17 05:58:00;;;;;;;4.22;0.68;;;9.60;99.90;;;;;;5015111;28;20096;-69
2022/09/17 06:00:26;;;;;;;6.97;1.10;;;9.60;99.90;;;;;;5021148;28;20045;-69
2022/09/17 06:02:56;;;;;;;7.32;0.90;;;9.60;99.90;;;;;;5009086;28;20560;-69
2022/09/17 06:05:23;;;;;;;2.58;0.63;;;9.80;99.90;;;;;;5015348;28;20053;-69
2022/09/17 06:07:49;;;;;;;6.22;0.82;;;9.50;99.90;;;;;;5018095;28;20144;-70
2022/09/17 06:10:15;;;;;;;9.07;1.35;;;9.50;99.90;;;;;;5031890;28;20044;-69
2022/09/17 06:12:41;;;;;;;9.52;1.20;;;9.50;99.90;;;;;;5014116;28;20034;-69
2022/09/17 06:15:07;;;;;;;7.85;1.55;;;9.60;99.90;;;;;;5018910;28;20106;-69
2022/09/17 06:17:34;;;;;;;9.85;1.20;;;9.60;99.90;;;;;;5025062;28;20042;-69
2022/09/17 06:20:00;;;;;;;9.93;1.20;;;9.60;99.90;;;;;;5022497;28;20080;-69
2022/09/17 06:22:26;;;;;;;9.02;1.35;;;9.50;99.90;;;;;;5016258;28;20124;-69
2022/09/17 06:24:52;;;;;;;8.85;1.30;;;9.60;99.90;;;;;;4997198;28;20124;-69
2022/09/17 06:27:17;;;;;;;8.52;1.00;;;9.50;99.90;;;;;;5019908;28;20053;-68
2022/09/17 06:29:43;;;;;;;6.88;1.35;;;9.60;99.90;;;;;;5021082;28;20033;-68
2022/09/17 06:32:11;;;;;;;9.60;1.10;;;9.60;99.90;;;;;;5011014;28;20927;-68
2022/09/17 06:34:39;;;;;;;7.15;1.00;;;9.60;99.90;;;;;;5020080;28;20632;-69
2022/09/17 06:37:05;;;;;;;10.13;1.13;;;9.60;99.90;;;;;;5021493;28;20092;-69
2022/09/17 06:39:31;;;;;;;8.35;1.30;;;9.60;99.90;;;;;;5035314;28;20638;-69
2022/09/17 06:41:57;;;;;;;6.45;1.20;;;9.70;99.90;;;;;;5023370;28;20041;-69
2022/09/17 06:44:22;;;;;;;11.43;1.58;;;9.70;99.90;;;;;;5024458;28;20129;-69
2022/09/17 06:46:49;;;;;;;10.85;1.50;;;9.80;99.90;;;;;;5025594;28;20430;-69
2022/09/17 06:49:16;;;;;;;9.52;1.60;;;9.80;99.90;;;;;;5021924;28;20114;-69
2022/09/17 06:51:43;;;;;;;9.60;1.63;;;9.80;99.90;;;;;;5006694;28;20038;-69
2022/09/17 06:54:09;;;;;;;11.80;2.10;;;9.80;99.90;;;;;;5022802;28;20084;-69
2022/09/17 06:56:35;;;;;;;10.27;1.85;;;9.80;99.90;;;;;;5026124;28;20055;-69
2022/09/17 06:59:01;;;;;;;13.70;1.83;;;9.90;99.90;;;;;;5021408;28;20045;-69
2022/09/17 07:01:27;;;;;;;11.90;1.58;;;10.00;99.90;;;;;;5019806;28;20045;-69
2022/09/17 07:03:53;;;;;;;15.38;2.55;;;10.10;99.90;;;;;;5023379;28;20041;-69
2022/09/17 07:06:19;;;;;;;10.90;1.65;;;10.30;99.90;;;;;;5015657;28;20057;-69
2022/09/17 07:08:46;;;;;;;16.45;1.60;;;10.30;99.90;;;;;;5016245;28;20095;-69
2022/09/17 07:11:12;;;;;;;12.60;1.63;;;10.40;99.90;;;;;;5041614;28;20048;-69
2022/09/17 07:13:38;;;;;;;11.60;2.00;;;10.30;99.90;;;;;;5028803;28;20449;-69
2022/09/17 07:16:05;;;;;;;12.63;1.42;;;10.40;99.90;;;;;;5010492;28;20073;-69
2022/09/17 07:18:31;;;;;;;8.68;1.08;;;10.50;99.90;;;;;;5028602;28;20467;-69
2022/09/17 07:20:59;;;;;;;6.72;1.30;;;10.60;99.90;;;;;;5028582;28;20041;-70
2022/09/17 07:23:28;;;;;;;13.93;1.52;;;10.90;99.90;;;;;;5027808;28;20044;-69
2022/09/17 07:25:55;;;;;;;15.27;1.60;;;11.00;99.90;;;;;;5012330;28;20049;-70
2022/09/17 07:28:21;;;;;;;9.65;1.33;;;11.20;99.90;;;;;;5010723;28;20047;-70
2022/09/17 07:30:48;;;;;;;9.65;1.30;;;11.40;99.90;;;;;;5044542;28;20041;-69
2022/09/17 07:33:16;;;;;;;10.00;1.10;;;11.60;99.90;;;;;;5012696;28;20080;-70
2022/09/17 07:35:42;;;;;;;10.15;1.30;;;11.70;99.90;;;;;;5029544;28;20600;-69
2022/09/17 07:38:08;;;;;;;12.65;1.42;;;11.80;99.90;;;;;;5029787;28;20061;-70
2022/09/17 07:40:33;;;;;;;14.32;1.50;;;11.90;99.90;;;;;;5057062;28;20073;-70
2022/09/17 07:42:59;;;;;;;11.07;1.42;;;12.00;99.90;;;;;;5007263;28;20049;-70
2022/09/17 07:45:25;;;;;;;16.20;1.55;;;12.00;99.90;;;;;;5023537;28;20041;-70
2022/09/17 07:47:50;;;;;;;13.48;1.52;;;12.20;99.90;;;;;;5025863;28;20037;-70
2022/09/17 07:50:16;;;;;;;10.32;1.80;;;12.50;99.90;;;;;;5024612;28;20132;-70
2022/09/17 07:52:48;;;;;;;8.57;1.30;;;12.50;99.90;;;;;;5035522;28;20038;-70
2022/09/17 07:55:14;;;;;;;11.32;1.63;;;12.60;99.90;;;;;;5018235;28;20052;-69
2022/09/17 07:57:40;;;;;;;8.55;1.20;;;12.60;99.90;;;;;;5023373;28;20699;-70
2022/09/17 08:00:07;;;;;;;7.05;1.27;;;12.80;99.90;;;;;;5023885;28;20041;-69
2022/09/17 08:02:32;;;;;;;9.07;1.50;;;12.60;99.90;;;;;;5020134;28;20037;-69
2022/09/17 08:04:58;;;;;;;8.23;1.50;;;12.60;99.90;;;;;;5023652;28;20473;-71
2022/09/17 08:07:24;;;;;;;12.43;1.30;;;12.40;99.90;;;;;;5009096;28;20048;-70
2022/09/17 08:09:50;;;;;;;8.10;1.00;;;12.30;99.90;;;;;;5024284;28;20191;-71
2022/09/17 08:12:18;;;;;;;8.38;1.38;;;12.10;99.90;;;;;;5022775;28;20041;-71
2022/09/17 08:14:43;;;;;;;8.68;1.23;;;12.00;99.90;;;;;;5023727;28;20060;-71
2022/09/17 08:17:09;;;;;;;11.45;1.65;;;11.90;99.90;;;;;;5024078;28;20061;-70
2022/09/17 08:19:35;;;;;;;9.50;1.88;;;11.70;99.90;;;;;;5006729;28;20042;-70
2022/09/17 08:22:01;;;;;;;12.60;1.45;;;11.60;99.90;;;;;;5023148;28;20045;-70
2022/09/17 08:24:27;;;;;;;10.63;1.58;;;11.50;99.90;;;;;;5006022;28;20106;-71
2022/09/17 08:26:53;;;;;;;8.38;1.23;;;11.60;99.90;;;;;;5022888;28;20052;-70
2022/09/17 08:29:18;;;;;;;6.35;1.20;;;11.60;99.90;;;;;;5024153;28;20045;-71
2022/09/17 08:31:44;;;;;;;8.85;1.30;;;11.60;99.90;;;;;;5024170;28;20052;-70
2022/09/17 08:34:10;;;;;;;13.40;2.05;;;11.70;99.90;;;;;;5022409;28;20525;-70
2022/09/17 08:36:36;;;;;;;10.40;1.25;;;11.70;99.90;;;;;;5007398;28;20029;-71
2022/09/17 08:39:02;;;;;;;10.02;1.42;;;11.70;99.90;;;;;;5006665;28;20494;-70
2022/09/17 08:41:36;;;;;;;9.38;1.30;;;11.70;99.90;;;;;;5020067;28;20164;-70
2022/09/17 08:44:23;;;;;;;13.20;1.00;;;11.80;99.90;;;;;;5004717;28;20118;-71
2022/09/17 08:47:03;;;;;;;12.02;1.33;;;11.90;99.90;;;;;;5021622;28;20049;-70
2022/09/17 08:49:53;;;;;;;9.10;1.10;;;12.00;99.90;;;;;;5015916;28;20041;-70
2022/09/17 08:52:31;;;;;;;6.95;1.42;;;12.00;99.90;;;;;;5021416;28;20544;-70
2022/09/17 08:55:33;;;;;;;11.30;1.23;;;12.00;99.90;;;;;;5051070;28;20178;-70
2022/09/17 08:58:36;;;;;;;8.43;1.48;;;11.90;99.90;;;;;;5019055;28;20041;-70
2022/09/17 09:01:31;;;;;;;11.43;1.30;;;11.90;99.90;;;;;;5031381;28;20861;-70
2022/09/17 09:04:11;;;;;;;8.50;1.48;;;11.90;99.90;;;;;;5022346;28;20045;-71
2022/09/17 09:06:45;;;;;;;8.40;1.83;;;11.90;99.90;;;;;;5017013;28;20045;-70
2022/09/17 09:09:14;;;;;;;11.23;1.45;;;12.00;99.90;;;;;;5051854;28;20041;-70
2022/09/17 09:11:42;;;;;;;10.65;1.48;;;12.10;99.90;;;;;;5017787;28;20045;-70
2022/09/17 09:14:26;;;;;;;13.10;1.88;;;12.30;99.90;;;;;;5012993;28;20045;-70
2022/09/17 09:16:54;;;;;;;8.73;1.40;;;12.30;99.90;;;;;;5017498;28;20050;-69
2022/09/17 09:19:22;;;;;;;13.50;1.52;;;12.30;99.90;;;;;;5019434;28;20049;-70
2022/09/17 09:22:02;;;;;;;16.45;2.15;;;12.40;99.90;;;;;;5003477;28;20472;-70
2022/09/17 09:24:41;;;;;;;11.70;1.42;;;12.50;99.90;;;;;;5023193;28;20049;-70
2022/09/17 09:27:21;;;;;;;7.63;1.40;;;12.60;99.90;;;;;;5037493;28;20053;-72
2022/09/17 09:30:00;;;;;;;13.23;1.73;;;12.80;99.90;;;;;;5021362;28;20053;-70
2022/09/17 09:32:57;;;;;;;10.73;1.42;;;12.90;99.90;;;;;;5026297;28;20072;-70
2022/09/17 09:35:26;;;;;;;10.65;1.50;;;12.80;99.90;;;;;;5026079;28;20111;-70
2022/09/17 09:38:07;;;;;;;15.45;1.70;;;12.70;99.90;;;;;;5021595;28;20098;-72
2022/09/17 09:40:50;;;;;;;16.52;1.58;;;12.60;99.90;;;;;;5011739;28;20056;-71
2022/09/17 09:43:23;;;;;;;9.93;1.35;;;12.50;99.90;;;;;;5011576;28;20082;-71
2022/09/17 09:46:26;;;;;;;9.25;1.15;;;12.50;99.90;;;;;;5034875;28;20106;-72
2022/09/17 09:49:13;;;;;;;12.48;1.92;;;12.50;99.90;;;;;;5036532;28;20050;-72
2022/09/17 09:51:53;;;;;;;6.65;1.20;;;12.60;99.90;;;;;;5022569;28;20049;-72
2022/09/17 09:54:29;;;;;;;13.57;1.88;;;12.60;99.90;;;;;;5052044;28;20281;-72
2022/09/17 09:57:02;;;;;;;12.00;1.50;;;12.70;99.90;;;;;;5038138;28;20576;-72
2022/09/17 09:59:29;;;;;;;18.55;2.00;;;12.90;99.90;;;;;;5040658;28;20045;-72
2022/09/17 10:01:54;;;;;;;11.13;1.65;;;12.90;99.90;;;;;;5024222;28;20081;-71
2022/09/17 10:04:26;;;;;;;12.48;2.00;;;12.90;99.90;;;;;;5020243;28;20155;-71
2022/09/17 10:06:52;;;;;;;;;;;12.90;99.90;;;;;;5024877;28;20111;-72
2022/09/17 10:09:20;;;;;;;15.20;1.77;;;12.90;99.90;;;;;;5025929;28;19931;-71
2022/09/17 10:12:12;;;;;;;13.30;2.25;;;13.10;99.90;;;;;;5023089;28;20049;-71
2022/09/17 10:14:45;;;;;;;16.08;1.92;;;13.00;99.90;;;;;;5022573;28;20418;-71
2022/09/17 10:17:16;;;;;;;5.97;1.30;;;13.10;99.90;;;;;;5006528;28;20056;-71
2022/09/17 10:19:43;;;;;;;15.67;2.10;;;13.20;99.90;;;;;;5040454;28;20477;-71
2022/09/17 10:22:32;;;;;;;15.40;1.80;;;13.30;99.90;;;;;;5037730;28;20107;-72
2022/09/17 10:25:00;;;;;;;16.75;2.63;;;13.40;99.90;;;;;;5055182;28;20514;-72
2022/09/17 10:27:27;;;;;;;9.52;1.80;;;13.50;99.90;;;;;;5021626;28;20441;-72
2022/09/17 10:30:07;;;;;;;10.43;1.83;;;13.60;99.90;;;;;;5005001;28;20103;-72
2022/09/17 10:32:34;;;;;;;14.38;1.73;;;13.50;99.90;;;;;;5023852;28;20099;-71
2022/09/17 10:35:13;;;;;;;11.88;2.03;;;13.50;99.90;;;;;;5021552;28;20144;-70
2022/09/17 10:37:48;;;;;;;10.52;1.50;;;13.30;99.90;;;;;;5056164;28;20045;-71
2022/09/17 10:40:19;;;;;;;8.63;2.17;;;13.20;99.90;;;;;;5021318;28;20069;-71
2022/09/17 10:43:20;;;;;;;16.73;1.92;;;13.10;99.90;;;;;;5021865;28;20049;-71
2022/09/17 10:45:56;;;;;;;9.37;2.00;;;13.00;99.90;;;;;;5036946;28;20046;-70
2022/09/17 10:48:22;;;;;;;7.40;1.30;;;12.90;99.90;;;;;;5040528;28;20049;-69
2022/09/17 10:50:56;;;;;;;8.93;1.33;;;12.80;99.90;;;;;;5025095;28;20974;-70
2022/09/17 10:53:24;;;;;;;9.68;1.42;;;12.70;99.90;;;;;;5008014;28;20049;-70
2022/09/17 10:56:09;;;;;;;9.32;1.55;;;12.70;99.90;;;;;;5038463;28;20049;-70
2022/09/17 10:58:53;;;;;;;9.13;1.50;;;12.70;99.90;;;;;;5020380;28;20422;-70
2022/09/17 11:02:01;;;;;;;10.88;1.63;;;12.70;99.90;;;;;;5007218;28;20112;-69
2022/09/17 11:04:40;;;;;;;12.27;1.30;;;12.70;99.90;;;;;;5017524;28;20041;-69
2022/09/17 11:07:12;;;;;;;11.93;1.67;;;12.80;99.90;;;;;;5018538;28;20060;-70
2022/09/17 11:10:11;;;;;;;17.00;1.77;;;12.80;99.90;;;;;;5038907;28;20065;-69
2022/09/17 11:12:46;;;;;;;12.57;1.70;;;12.90;99.90;;;;;;5020310;28;20221;-70
2022/09/17 11:15:26;;;;;;;11.63;1.65;;;12.90;99.90;;;;;;5019973;28;20160;-69
2022/09/17 11:18:10;;;;;;;14.90;2.17;;;12.90;99.90;;;;;;5018284;28;20486;-69
2022/09/17 11:20:45;;;;;;;10.85;2.03;;;12.90;99.90;;;;;;5004581;28;20050;-70
2022/09/17 11:23:26;;;;;;;17.60;2.50;;;12.90;99.90;;;;;;5049409;28;20045;-71
2022/09/17 11:26:04;;;;;;;15.95;2.47;;;13.00;99.90;;;;;;5016487;28;20050;-70
2022/09/17 11:28:30;;;;;;;17.25;1.77;;;13.00;99.90;;;;;;5045288;28;20060;-71
2022/09/17 11:31:24;;;;;;;17.42;2.15;;;13.00;99.90;;;;;;5028899;28;20068;-68
2022/09/17 11:34:20;;;;;;;11.63;1.55;;;13.10;99.90;;;;;;5025646;28;20084;-70
2022/09/17 11:37:01;;;;;;;10.25;1.85;;;13.10;99.90;;;;;;5021071;28;20425;-69
2022/09/17 11:39:59;;;;;;;12.57;1.88;;;13.10;99.90;;;;;;5015013;28;20124;-69
2022/09/17 11:42:51;;;;;;;12.77;1.70;;;13.10;99.90;;;;;;4984740;28;20053;-70
2022/09/17 11:45:32;;;;;;;11.05;1.58;;;13.10;99.90;;;;;;5021171;28;20392;-69
2022/09/17 11:47:58;;;;;;;12.00;1.90;;;13.10;99.90;;;;;;5015146;28;20076;-69
2022/09/17 11:50:35;;;;;;;15.85;1.90;;;13.20;99.90;;;;;;5034386;28;20540;-70
2022/09/17 11:53:08;;;;;;;17.02;2.35;;;13.40;99.90;;;;;;5052922;28;20457;-71
2022/09/17 11:55:51;;;;;;;11.25;1.88;;;13.50;99.90;;;;;;5024527;28;20033;-71
2022/09/17 11:58:43;;;;;;;12.10;1.92;;;13.50;99.90;;;;;;5006843;28;20045;-71
2022/09/17 12:01:15;;;;;;;12.23;1.83;;;13.60;99.90;;;;;;5025774;28;20042;-71
2022/09/17 12:03:58;;;;;;;12.40;1.73;;;13.60;99.90;;;;;;5009193;28;20049;-73
2022/09/17 12:06:48;;;;;;;15.57;2.63;;;13.70;99.90;;;;;;5026538;28;20072;-72
2022/09/17 12:09:24;;;;;;;13.18;2.30;;;13.80;99.90;;;;;;5049337;28;20723;-72
2022/09/17 12:12:00;;;;;;;13.48;2.22;;;14.00;99.90;;;;;;5023267;28;20087;-72
2022/09/17 12:14:36;;;;;;;14.90;2.65;;;14.10;99.90;;;;;;5022327;28;20055;-71
2022/09/17 12:17:04;;;;;;;13.30;2.17;;;14.20;99.90;;;;;;5021188;28;20081;-71
2022/09/17 12:19:43;;;;;;;12.93;2.30;;;14.20;99.90;;;;;;5039155;28;20107;-70
2022/09/17 12:22:25;;;;;;;17.75;2.17;;;14.20;99.90;;;;;;5036050;28;20128;-70
2022/09/17 12:24:53;;;;;;;14.10;2.30;;;14.30;99.90;;;;;;5045857;28;20060;-71
2022/09/17 12:27:47;;;;;;;14.35;1.88;;;14.30;99.90;;;;;;5008955;28;20080;-70
2022/09/17 12:30:28;;;;;;;7.47;1.40;;;14.40;99.90;;;;;;5010203;28;20521;-71
2022/09/17 12:33:03;;;;;;;7.95;1.38;;;14.40;99.90;;;;;;5020789;28;20053;-70
2022/09/17 12:36:07;;;;;;;15.20;1.70;;;14.50;99.90;;;;;;5021342;28;20038;-71
2022/09/17 12:39:08;;;;;;;6.63;1.50;;;14.50;99.90;;;;;;5037801;28;20049;-71
2022/09/17 12:41:56;;;;;;;11.85;1.83;;;14.60;99.90;;;;;;5021714;28;20127;-71
2022/09/17 12:44:49;;;;;;;19.67;2.28;;;14.70;99.90;;;;;;5037446;28;20109;-72
2022/09/17 12:47:18;;;;;;;14.85;3.00;;;14.70;99.90;;;;;;5019482;28;20053;-72
2022/09/17 12:50:25;;;;;;;16.83;2.42;;;14.80;99.90;;;;;;5004397;28;20446;-71
2022/09/17 12:53:01;;;;;;;10.35;2.13;;;14.90;99.90;;;;;;5003241;28;20096;-71
2022/09/17 12:56:04;;;;;;;19.65;2.53;;;14.80;99.90;;;;;;5036915;28;20049;-71
2022/09/17 12:58:36;;;;;;;13.80;2.03;;;14.90;99.90;;;;;;5018864;28;20046;-71
2022/09/17 13:01:16;;;;;;;16.35;2.88;;;15.00;99.90;;;;;;4999855;28;20045;-71
2022/09/17 13:03:48;;;;;;;15.38;2.97;;;15.00;99.90;;;;;;5053079;28;20117;-71
2022/09/17 13:06:24;;;;;;;18.33;2.65;;;15.00;99.90;;;;;;5021947;28;20037;-71
2022/09/17 13:08:55;;;;;;;14.45;2.28;;;15.00;99.90;;;;;;5018735;28;20191;-71
2022/09/17 13:11:33;;;;;;;11.80;2.00;;;14.90;99.90;;;;;;5022045;28;20170;-71